Wynau, Switzerland

7:35 PM CEST on September 27, 2016 (GMT +0200)
Hofstrasse | | Change Station

Elev 1551 ft 47.24 °N, 7.78 °E | Updated 8 minutes ago

Partly Cloudy
Partly Cloudy
64.0 °F
Feels Like 64.0 °F
N
0.6
Wind Variable Wind from South
Gusts 1.2 mph

Today
High -- | Low -- °F
--% Chance of Precip.
Yesterday
High -- | Low -- °F
Precip. -- in
Pressure 30.33 in
Visibility 6.2 miles
Clouds Few 4800 ft
Dew Point 56 °F
Humidity 75%
Rainfall 0.00 in
Snow Depth Not available.
7:22 AM 7:15 PM
Waning Crescent, 10% visible
METAR LSZG 271720Z 07003KT 9999 FEW048 17/12 Q1027 NOSIG
Pressure 30.33 in
Visibility 6.2 miles
Clouds Few 4800 ft
Dew Point 56 °F
Humidity 75%
Rainfall 0.00 in
Snow Depth Not available.
7:22 AM 7:15 PM
Waning Crescent, 10% visible
METAR LSZG 271720Z 07003KT 9999 FEW048 17/12 Q1027 NOSIG

10-Day Weather Forecast

×

Almanac

Astronomy

Sep. 27, 2016 Rise Set
Actual Time
Civil Twilight
Nautical Twilight
Astronomical Twilight
Moon
Length of Visible Light
Length of Day
Tomorrow will be .
, % of the Moon is Illuminated

Today's Extremes

Country Highs Country Lows

Community

WunderPhotos

Upload Photos

1,942,135 photos uploaded!

WunderBlog® & News

Nearby

Air Quality

  Air Quality AQ Index Pollutant
Not available.

Snow Depth

Station Depth Elevation

Earthquake Activity

City Distance Mag. Time & Date
Minimum magnitude displayed is 2.5.

Coastal Water Temperatures

Place Temperature

Stations

Nearby Weather Stations

Station Location Temp. Windchill Dew Point Humidity Wind Precip. Elev Updated Type